Yona, Guam
Current Conditions -  °F | °C
As of 5:54 PM on Monday 24 Nov 2014 (Local Time) from PGUM Reporting Station
Broken Clouds Broken Clouds  
Wind Chill: 83°   Ceiling: 3900
Heat Index: 90°   Visibility: 10mi
Dew Point: 75°   Wind: 8mph
Humidity: 77%   Direction: 80°E
Pressure: 29.85"   Gusts: NA
Location:  13.41°N, 144.77°E
Report Text: PGUM 240754Z 08007KT 10SM FEW023 SCT031 BKN039 28/24 A2985 RMK AO2 SLP099 T02830239
Loading
Personal Weather Stations






























Interactive Weather Map New forecast layout! Learn more

10-Day Weather Forecast

Advertisements
Track Severe Weather on mobile